Durant, Iowa
Current Conditions -  °F | °C
As of 11:52 AM on Monday 24 Nov 2014 (Local Time) from KDVN Reporting Station
Unknown Precip Unknown Precip  
Wind Chill: 10°   Ceiling: 1300
Heat Index: 27°   Visibility: 1.5mi
Dew Point: 22°   Wind: 32mph
Humidity: 81%   Direction: 270°W
Pressure: 29.47"   Gusts: 44mph
Location:  41.6°N, 90.91°W
Report Text: KDVN 241752Z AUTO 27028G38KT 1 1/2SM UP OVC013 M03/M06 A2947 RMK AO2 PK WND 27038/1749 UPE34B43 SLP986 P0000 60008 T10281056 10000 21028 53023
Loading
Personal Weather Stations






























Interactive Weather Map New forecast layout! Learn more

10-Day Weather Forecast

Advertisements
Track Severe Weather on mobile